sensor_id;sensor_type;location;lat;lon;timestamp;temperature;humidity
12254;DHT22;6189;52.526;13.390;2023-07-20T00:01:08;20.30;99.90
12254;DHT22;6189;52.526;13.390;2023-07-20T00:03:56;20.20;99.90
12254;DHT22;6189;52.526;13.390;2023-07-20T00:06:44;20.10;99.90
12254;DHT22;6189;52.526;13.390;2023-07-20T00:09:31;20.20;99.90
12254;DHT22;6189;52.526;13.390;2023-07-20T00:12:19;20.20;99.90
12254;DHT22;6189;52.526;13.390;2023-07-20T00:15:06;20.20;99.90
12254;DHT22;6189;52.526;13.390;2023-07-20T00:17:53;20.20;99.90
12254;DHT22;6189;52.526;13.390;2023-07-20T00:20:40;20.20;99.90
12254;DHT22;6189;52.526;13.390;2023-07-20T00:23:29;20.10;99.90
12254;DHT22;6189;52.526;13.390;2023-07-20T00:26:16;20.00;99.90
12254;DHT22;6189;52.526;13.390;2023-07-20T00:29:06;20.00;99.90
12254;DHT22;6189;52.526;13.390;2023-07-20T00:31:53;20.10;99.90
12254;DHT22;6189;52.526;13.390;2023-07-20T00:34:40;20.10;99.90
12254;DHT22;6189;52.526;13.390;2023-07-20T00:37:27;20.10;99.90
12254;DHT22;6189;52.526;13.390;2023-07-20T00:40:16;20.10;99.90
12254;DHT22;6189;52.526;13.390;2023-07-20T00:43:03;20.10;99.90
12254;DHT22;6189;52.526;13.390;2023-07-20T00:45:50;20.10;99.90
12254;DHT22;6189;52.526;13.390;2023-07-20T00:48:37;20.10;99.90
12254;DHT22;6189;52.526;13.390;2023-07-20T00:51:25;20.10;99.90
12254;DHT22;6189;52.526;13.390;2023-07-20T00:54:13;20.10;99.90
12254;DHT22;6189;52.526;13.390;2023-07-20T00:57:07;20.10;99.90
12254;DHT22;6189;52.526;13.390;2023-07-20T00:59:54;20.10;99.90
12254;DHT22;6189;52.526;13.390;2023-07-20T01:02:52;20.00;99.90
12254;DHT22;6189;52.526;13.390;2023-07-20T01:05:40;20.10;99.90
12254;DHT22;6189;52.526;13.390;2023-07-20T01:08:31;20.10;99.90
12254;DHT22;6189;52.526;13.390;2023-07-20T01:11:21;20.10;99.90
12254;DHT22;6189;52.526;13.390;2023-07-20T01:14:11;20.10;99.90
12254;DHT22;6189;52.526;13.390;2023-07-20T01:16:59;20.10;99.90
12254;DHT22;6189;52.526;13.390;2023-07-20T01:19:46;20.10;99.90
12254;DHT22;6189;52.526;13.390;2023-07-20T01:22:43;20.00;99.90
12254;DHT22;6189;52.526;13.390;2023-07-20T01:25:37;20.00;99.90
12254;DHT22;6189;52.526;13.390;2023-07-20T01:31:33;19.90;99.90
12254;DHT22;6189;52.526;13.390;2023-07-20T01:34:22;19.80;99.90
12254;DHT22;6189;52.526;13.390;2023-07-20T01:37:10;19.60;99.90
12254;DHT22;6189;52.526;13.390;2023-07-20T01:39:58;19.70;99.90
12254;DHT22;6189;52.526;13.390;2023-07-20T01:42:53;19.70;99.90
12254;DHT22;6189;52.526;13.390;2023-07-20T01:45:41;19.70;99.90
12254;DHT22;6189;52.526;13.390;2023-07-20T01:48:30;19.80;99.90
12254;DHT22;6189;52.526;13.390;2023-07-20T01:51:17;19.80;99.90
12254;DHT22;6189;52.526;13.390;2023-07-20T01:54:04;19.80;99.90
12254;DHT22;6189;52.526;13.390;2023-07-20T01:56:52;19.70;99.90
12254;DHT22;6189;52.526;13.390;2023-07-20T01:59:41;19.60;99.90
12254;DHT22;6189;52.526;13.390;2023-07-20T02:02:28;19.60;99.90
12254;DHT22;6189;52.526;13.390;2023-07-20T02:05:17;19.60;99.90
12254;DHT22;6189;52.526;13.390;2023-07-20T02:08:04;19.60;99.90
12254;DHT22;6189;52.526;13.390;2023-07-20T02:10:51;19.60;99.90
12254;DHT22;6189;52.526;13.390;2023-07-20T02:13:39;19.60;99.90
12254;DHT22;6189;52.526;13.390;2023-07-20T02:16:26;19.60;99.90
12254;DHT22;6189;52.526;13.390;2023-07-20T02:19:14;19.50;99.90
12254;DHT22;6189;52.526;13.390;2023-07-20T02:22:02;19.50;99.90
12254;DHT22;6189;52.526;13.390;2023-07-20T02:24:49;19.50;99.90
12254;DHT22;6189;52.526;13.390;2023-07-20T02:27:37;19.40;99.90
12254;DHT22;6189;52.526;13.390;2023-07-20T02:30:24;19.40;99.90
12254;DHT22;6189;52.526;13.390;2023-07-20T02:33:12;19.40;99.90
12254;DHT22;6189;52.526;13.390;2023-07-20T02:36:00;19.40;99.90
12254;DHT22;6189;52.526;13.390;2023-07-20T02:38:48;19.40;99.90
12254;DHT22;6189;52.526;13.390;2023-07-20T02:41:35;19.40;99.90
12254;DHT22;6189;52.526;13.390;2023-07-20T02:44:23;19.30;99.90
12254;DHT22;6189;52.526;13.390;2023-07-20T02:47:13;19.30;99.90
12254;DHT22;6189;52.526;13.390;2023-07-20T02:50:00;19.30;99.90
12254;DHT22;6189;52.526;13.390;2023-07-20T02:52:47;19.30;99.90
12254;DHT22;6189;52.526;13.390;2023-07-20T02:55:36;19.30;99.90
12254;DHT22;6189;52.526;13.390;2023-07-20T02:58:23;19.20;99.90
12254;DHT22;6189;52.526;13.390;2023-07-20T03:01:10;19.20;99.90
12254;DHT22;6189;52.526;13.390;2023-07-20T03:03:57;19.20;99.90
12254;DHT22;6189;52.526;13.390;2023-07-20T03:06:45;19.30;99.90
12254;DHT22;6189;52.526;13.390;2023-07-20T03:09:32;19.10;99.90
12254;DHT22;6189;52.526;13.390;2023-07-20T03:12:21;19.20;99.90
12254;DHT22;6189;52.526;13.390;2023-07-20T03:15:10;19.10;99.90
12254;DHT22;6189;52.526;13.390;2023-07-20T03:17:57;19.10;99.90
12254;DHT22;6189;52.526;13.390;2023-07-20T03:20:45;19.10;99.90
12254;DHT22;6189;52.526;13.390;2023-07-20T03:23:34;19.10;99.90
12254;DHT22;6189;52.526;13.390;2023-07-20T03:26:21;19.10;99.90
12254;DHT22;6189;52.526;13.390;2023-07-20T03:29:09;19.00;99.90
12254;DHT22;6189;52.526;13.390;2023-07-20T03:31:58;19.00;99.90
12254;DHT22;6189;52.526;13.390;2023-07-20T03:34:45;19.00;99.90
12254;DHT22;6189;52.526;13.390;2023-07-20T03:37:33;19.10;99.90
12254;DHT22;6189;52.526;13.390;2023-07-20T03:40:22;19.20;99.90
12254;DHT22;6189;52.526;13.390;2023-07-20T03:43:09;19.20;99.90
12254;DHT22;6189;52.526;13.390;2023-07-20T03:45:58;19.20;99.90
12254;DHT22;6189;52.526;13.390;2023-07-20T03:48:45;19.20;99.90
12254;DHT22;6189;52.526;13.390;2023-07-20T03:51:32;19.10;99.90
12254;DHT22;6189;52.526;13.390;2023-07-20T03:54:20;19.10;99.90
12254;DHT22;6189;52.526;13.390;2023-07-20T03:57:08;19.10;99.90
12254;DHT22;6189;52.526;13.390;2023-07-20T03:59:56;19.10;99.90
12254;DHT22;6189;52.526;13.390;2023-07-20T04:02:45;19.00;99.90
12254;DHT22;6189;52.526;13.390;2023-07-20T04:05:32;19.00;99.90
12254;DHT22;6189;52.526;13.390;2023-07-20T04:08:19;18.90;99.90
12254;DHT22;6189;52.526;13.390;2023-07-20T04:11:06;18.90;99.90
12254;DHT22;6189;52.526;13.390;2023-07-20T04:13:53;18.80;99.90
12254;DHT22;6189;52.526;13.390;2023-07-20T04:16:43;18.80;99.90
12254;DHT22;6189;52.526;13.390;2023-07-20T04:19:33;18.70;99.90
12254;DHT22;6189;52.526;13.390;2023-07-20T04:22:20;18.70;99.90
12254;DHT22;6189;52.526;13.390;2023-07-20T04:25:08;18.80;99.90
12254;DHT22;6189;52.526;13.390;2023-07-20T04:27:55;18.90;99.90
12254;DHT22;6189;52.526;13.390;2023-07-20T04:30:42;19.00;99.90
12254;DHT22;6189;52.526;13.390;2023-07-20T04:33:29;19.00;99.90
12254;DHT22;6189;52.526;13.390;2023-07-20T04:36:18;19.00;99.90
12254;DHT22;6189;52.526;13.390;2023-07-20T04:39:06;19.00;99.90
12254;DHT22;6189;52.526;13.390;2023-07-20T04:41:53;19.00;99.90
12254;DHT22;6189;52.526;13.390;2023-07-20T04:44:41;19.00;99.90
12254;DHT22;6189;52.526;13.390;2023-07-20T04:47:28;19.10;99.90
12254;DHT22;6189;52.526;13.390;2023-07-20T04:50:15;19.10;99.90
12254;DHT22;6189;52.526;13.390;2023-07-20T04:53:04;19.20;99.90
12254;DHT22;6189;52.526;13.390;2023-07-20T04:55:51;19.30;99.90
12254;DHT22;6189;52.526;13.390;2023-07-20T04:58:39;19.30;99.90
12254;DHT22;6189;52.526;13.390;2023-07-20T05:01:27;19.30;99.90
12254;DHT22;6189;52.526;13.390;2023-07-20T05:04:14;19.20;99.90
12254;DHT22;6189;52.526;13.390;2023-07-20T05:07:01;19.00;99.90
12254;DHT22;6189;52.526;13.390;2023-07-20T05:09:51;19.00;99.90
12254;DHT22;6189;52.526;13.390;2023-07-20T05:12:38;19.00;99.90
12254;DHT22;6189;52.526;13.390;2023-07-20T05:15:25;19.00;99.90
12254;DHT22;6189;52.526;13.390;2023-07-20T05:18:12;19.00;99.90
12254;DHT22;6189;52.526;13.390;2023-07-20T05:21:05;19.00;99.90
12254;DHT22;6189;52.526;13.390;2023-07-20T05:23:52;19.00;99.90
12254;DHT22;6189;52.526;13.390;2023-07-20T05:26:41;19.00;99.90
12254;DHT22;6189;52.526;13.390;2023-07-20T05:29:28;19.00;99.90
12254;DHT22;6189;52.526;13.390;2023-07-20T05:32:15;18.90;99.90
12254;DHT22;6189;52.526;13.390;2023-07-20T05:35:02;18.90;99.90
12254;DHT22;6189;52.526;13.390;2023-07-20T05:37:49;19.00;99.90
12254;DHT22;6189;52.526;13.390;2023-07-20T05:40:39;19.00;99.90
12254;DHT22;6189;52.526;13.390;2023-07-20T05:43:29;19.00;99.90
12254;DHT22;6189;52.526;13.390;2023-07-20T05:46:16;19.10;99.90
12254;DHT22;6189;52.526;13.390;2023-07-20T05:49:03;19.10;99.90
12254;DHT22;6189;52.526;13.390;2023-07-20T05:51:50;19.20;99.90
12254;DHT22;6189;52.526;13.390;2023-07-20T05:54:38;19.30;99.90
12254;DHT22;6189;52.526;13.390;2023-07-20T05:57:25;19.30;99.90
12254;DHT22;6189;52.526;13.390;2023-07-20T06:00:15;19.30;99.90
12254;DHT22;6189;52.526;13.390;2023-07-20T06:03:04;19.40;99.90
12254;DHT22;6189;52.526;13.390;2023-07-20T06:05:51;19.30;99.90
12254;DHT22;6189;52.526;13.390;2023-07-20T06:08:38;19.30;99.90
12254;DHT22;6189;52.526;13.390;2023-07-20T06:11:26;19.40;99.90
12254;DHT22;6189;52.526;13.390;2023-07-20T06:14:13;19.40;99.90
12254;DHT22;6189;52.526;13.390;2023-07-20T06:17:02;19.30;99.90
12254;DHT22;6189;52.526;13.390;2023-07-20T06:19:49;19.30;99.90
12254;DHT22;6189;52.526;13.390;2023-07-20T06:22:36;19.30;99.90
12254;DHT22;6189;52.526;13.390;2023-07-20T06:25:23;19.30;99.90
12254;DHT22;6189;52.526;13.390;2023-07-20T06:28:10;19.40;99.90
12254;DHT22;6189;52.526;13.390;2023-07-20T06:31:00;19.50;99.90
12254;DHT22;6189;52.526;13.390;2023-07-20T06:33:49;19.50;99.90
12254;DHT22;6189;52.526;13.390;2023-07-20T06:36:36;19.60;99.90
12254;DHT22;6189;52.526;13.390;2023-07-20T06:39:24;19.60;99.90
12254;DHT22;6189;52.526;13.390;2023-07-20T06:42:11;19.60;99.90
12254;DHT22;6189;52.526;13.390;2023-07-20T06:44:58;19.70;99.90
12254;DHT22;6189;52.526;13.390;2023-07-20T06:47:45;19.60;99.90
12254;DHT22;6189;52.526;13.390;2023-07-20T06:50:34;19.60;99.90
12254;DHT22;6189;52.526;13.390;2023-07-20T06:53:22;19.60;99.90
12254;DHT22;6189;52.526;13.390;2023-07-20T06:56:09;19.70;99.90
12254;DHT22;6189;52.526;13.390;2023-07-20T06:58:57;19.80;99.90
12254;DHT22;6189;52.526;13.390;2023-07-20T07:01:44;19.80;99.90
12254;DHT22;6189;52.526;13.390;2023-07-20T07:04:31;19.80;99.90
12254;DHT22;6189;52.526;13.390;2023-07-20T07:07:20;19.80;99.90
12254;DHT22;6189;52.526;13.390;2023-07-20T07:10:08;19.80;99.90
12254;DHT22;6189;52.526;13.390;2023-07-20T07:12:55;19.90;99.90
12254;DHT22;6189;52.526;13.390;2023-07-20T07:15:42;19.90;99.90
12254;DHT22;6189;52.526;13.390;2023-07-20T07:18:29;19.90;99.90
12254;DHT22;6189;52.526;13.390;2023-07-20T07:21:16;19.80;99.90
12254;DHT22;6189;52.526;13.390;2023-07-20T07:24:05;19.80;99.90
12254;DHT22;6189;52.526;13.390;2023-07-20T07:26:53;19.80;99.90
12254;DHT22;6189;52.526;13.390;2023-07-20T07:29:40;19.90;99.90
12254;DHT22;6189;52.526;13.390;2023-07-20T07:32:27;20.00;99.90
12254;DHT22;6189;52.526;13.390;2023-07-20T07:35:14;20.10;99.90
12254;DHT22;6189;52.526;13.390;2023-07-20T07:38:01;20.20;99.90
12254;DHT22;6189;52.526;13.390;2023-07-20T07:40:50;20.30;99.90
12254;DHT22;6189;52.526;13.390;2023-07-20T07:43:37;20.40;99.90
12254;DHT22;6189;52.526;13.390;2023-07-20T07:46:25;20.50;99.90
12254;DHT22;6189;52.526;13.390;2023-07-20T07:49:15;20.50;99.90
12254;DHT22;6189;52.526;13.390;2023-07-20T07:52:02;20.50;99.90
12254;DHT22;6189;52.526;13.390;2023-07-20T07:54:49;20.50;99.90
12254;DHT22;6189;52.526;13.390;2023-07-20T07:57:37;20.40;99.90
12254;DHT22;6189;52.526;13.390;2023-07-20T08:00:25;20.50;99.90
12254;DHT22;6189;52.526;13.390;2023-07-20T08:03:11;20.60;99.90
12254;DHT22;6189;52.526;13.390;2023-07-20T08:05:57;20.60;99.90
12254;DHT22;6189;52.526;13.390;2023-07-20T08:08:43;20.60;99.90
12254;DHT22;6189;52.526;13.390;2023-07-20T08:11:29;20.80;99.90
12254;DHT22;6189;52.526;13.390;2023-07-20T08:14:18;20.80;99.90
12254;DHT22;6189;52.526;13.390;2023-07-20T08:17:04;20.70;99.90
12254;DHT22;6189;52.526;13.390;2023-07-20T08:19:49;20.70;99.90
12254;DHT22;6189;52.526;13.390;2023-07-20T08:22:35;20.80;99.90
12254;DHT22;6189;52.526;13.390;2023-07-20T08:25:20;20.80;99.90
12254;DHT22;6189;52.526;13.390;2023-07-20T08:28:06;20.90;99.90
12254;DHT22;6189;52.526;13.390;2023-07-20T08:30:53;20.90;99.90
12254;DHT22;6189;52.526;13.390;2023-07-20T08:33:39;21.00;99.90
12254;DHT22;6189;52.526;13.390;2023-07-20T08:36:24;21.10;99.90
12254;DHT22;6189;52.526;13.390;2023-07-20T08:39:10;21.20;99.90
12254;DHT22;6189;52.526;13.390;2023-07-20T08:41:55;21.20;99.90
12254;DHT22;6189;52.526;13.390;2023-07-20T08:44:42;21.20;99.90
12254;DHT22;6189;52.526;13.390;2023-07-20T08:47:30;21.30;99.90
12254;DHT22;6189;52.526;13.390;2023-07-20T08:50:16;21.30;99.90
12254;DHT22;6189;52.526;13.390;2023-07-20T08:53:02;21.40;99.90
12254;DHT22;6189;52.526;13.390;2023-07-20T08:55:48;21.50;99.90
12254;DHT22;6189;52.526;13.390;2023-07-20T08:58:35;21.50;99.90
12254;DHT22;6189;52.526;13.390;2023-07-20T09:01:22;21.60;99.90
12254;DHT22;6189;52.526;13.390;2023-07-20T09:04:08;21.60;99.90
12254;DHT22;6189;52.526;13.390;2023-07-20T09:06:54;21.70;99.80
12254;DHT22;6189;52.526;13.390;2023-07-20T09:09:40;21.70;99.80
12254;DHT22;6189;52.526;13.390;2023-07-20T09:12:26;21.80;99.60
12254;DHT22;6189;52.526;13.390;2023-07-20T09:15:12;21.80;98.70
12254;DHT22;6189;52.526;13.390;2023-07-20T09:18:00;21.80;98.50
12254;DHT22;6189;52.526;13.390;2023-07-20T09:20:48;21.80;98.70
12254;DHT22;6189;52.526;13.390;2023-07-20T09:23:34;21.90;98.60
12254;DHT22;6189;52.526;13.390;2023-07-20T09:26:19;21.90;98.30
12254;DHT22;6189;52.526;13.390;2023-07-20T09:29:06;22.10;98.10
12254;DHT22;6189;52.526;13.390;2023-07-20T09:31:58;23.00;97.50
12254;DHT22;6189;52.526;13.390;2023-07-20T09:34:45;22.90;96.20
12254;DHT22;6189;52.526;13.390;2023-07-20T09:37:32;22.70;96.50
12254;DHT22;6189;52.526;13.390;2023-07-20T09:40:20;22.60;96.60
12254;DHT22;6189;52.526;13.390;2023-07-20T09:43:07;22.30;95.70
12254;DHT22;6189;52.526;13.390;2023-07-20T09:45:53;22.10;96.40
12254;DHT22;6189;52.526;13.390;2023-07-20T09:48:42;22.00;96.60
12254;DHT22;6189;52.526;13.390;2023-07-20T09:51:37;21.90;96.80
12254;DHT22;6189;52.526;13.390;2023-07-20T09:54:24;21.90;96.70
12254;DHT22;6189;52.526;13.390;2023-07-20T09:57:12;21.80;97.10
12254;DHT22;6189;52.526;13.390;2023-07-20T09:59:58;21.70;97.10
12254;DHT22;6189;52.526;13.390;2023-07-20T10:02:44;21.50;98.00
12254;DHT22;6189;52.526;13.390;2023-07-20T10:05:31;21.40;99.10
12254;DHT22;6189;52.526;13.390;2023-07-20T10:08:18;21.30;99.60
12254;DHT22;6189;52.526;13.390;2023-07-20T10:11:05;21.30;99.80
12254;DHT22;6189;52.526;13.390;2023-07-20T10:13:53;21.20;99.90
12254;DHT22;6189;52.526;13.390;2023-07-20T10:16:39;21.20;99.90
12254;DHT22;6189;52.526;13.390;2023-07-20T10:19:33;21.20;99.90
12254;DHT22;6189;52.526;13.390;2023-07-20T10:22:19;21.10;99.90
12254;DHT22;6189;52.526;13.390;2023-07-20T10:25:07;21.20;99.90
12254;DHT22;6189;52.526;13.390;2023-07-20T10:27:54;21.20;99.90
12254;DHT22;6189;52.526;13.390;2023-07-20T10:30:40;21.20;99.90
12254;DHT22;6189;52.526;13.390;2023-07-20T10:33:26;21.10;99.80
12254;DHT22;6189;52.526;13.390;2023-07-20T10:36:12;20.80;99.50
12254;DHT22;6189;52.526;13.390;2023-07-20T10:38:58;20.90;99.90
12254;DHT22;6189;52.526;13.390;2023-07-20T10:41:46;20.90;99.90
12254;DHT22;6189;52.526;13.390;2023-07-20T10:44:33;20.90;99.90
12254;DHT22;6189;52.526;13.390;2023-07-20T10:47:19;21.00;99.90
12254;DHT22;6189;52.526;13.390;2023-07-20T10:50:04;21.10;99.90
12254;DHT22;6189;52.526;13.390;2023-07-20T10:53:03;21.20;99.80
12254;DHT22;6189;52.526;13.390;2023-07-20T10:55:50;21.10;99.50
12254;DHT22;6189;52.526;13.390;2023-07-20T10:58:51;21.20;99.90
12254;DHT22;6189;52.526;13.390;2023-07-20T11:01:42;21.30;99.50
12254;DHT22;6189;52.526;13.390;2023-07-20T11:04:37;21.40;99.50
12254;DHT22;6189;52.526;13.390;2023-07-20T11:07:36;21.50;99.30
12254;DHT22;6189;52.526;13.390;2023-07-20T11:10:22;21.40;99.20
12254;DHT22;6189;52.526;13.390;2023-07-20T11:16:11;21.90;99.10
12254;DHT22;6189;52.526;13.390;2023-07-20T11:18:57;22.00;98.90
12254;DHT22;6189;52.526;13.390;2023-07-20T11:21:45;22.00;97.90
12254;DHT22;6189;52.526;13.390;2023-07-20T11:24:31;21.80;97.70
12254;DHT22;6189;52.526;13.390;2023-07-20T11:27:17;21.80;98.00
12254;DHT22;6189;52.526;13.390;2023-07-20T11:30:14;21.80;98.30
12254;DHT22;6189;52.526;13.390;2023-07-20T11:33:00;21.90;98.20
12254;DHT22;6189;52.526;13.390;2023-07-20T11:35:48;22.10;98.70
12254;DHT22;6189;52.526;13.390;2023-07-20T11:38:35;22.20;97.40
12254;DHT22;6189;52.526;13.390;2023-07-20T11:41:23;22.40;97.00
12254;DHT22;6189;52.526;13.390;2023-07-20T11:44:09;22.70;97.50
12254;DHT22;6189;52.526;13.390;2023-07-20T11:47:00;22.90;98.00
12254;DHT22;6189;52.526;13.390;2023-07-20T11:49:47;23.30;97.80
12254;DHT22;6189;52.526;13.390;2023-07-20T11:52:39;23.50;96.50
12254;DHT22;6189;52.526;13.390;2023-07-20T11:55:26;23.60;96.10
12254;DHT22;6189;52.526;13.390;2023-07-20T11:58:11;23.40;95.20
12254;DHT22;6189;52.526;13.390;2023-07-20T12:00:56;23.30;95.70
12254;DHT22;6189;52.526;13.390;2023-07-20T12:03:43;23.20;93.90
12254;DHT22;6189;52.526;13.390;2023-07-20T12:06:28;23.00;93.80
12254;DHT22;6189;52.526;13.390;2023-07-20T12:09:16;22.70;93.70
12254;DHT22;6189;52.526;13.390;2023-07-20T12:12:03;22.70;94.40
12254;DHT22;6189;52.526;13.390;2023-07-20T12:14:54;22.60;94.90
12254;DHT22;6189;52.526;13.390;2023-07-20T12:17:42;22.30;95.50
12254;DHT22;6189;52.526;13.390;2023-07-20T12:20:28;22.10;95.50
12254;DHT22;6189;52.526;13.390;2023-07-20T12:23:15;22.00;95.50
12254;DHT22;6189;52.526;13.390;2023-07-20T12:26:02;21.90;95.70
12254;DHT22;6189;52.526;13.390;2023-07-20T12:28:49;21.90;96.30
12254;DHT22;6189;52.526;13.390;2023-07-20T12:31:36;22.20;95.70
12254;DHT22;6189;52.526;13.390;2023-07-20T12:34:21;22.30;94.90
12254;DHT22;6189;52.526;13.390;2023-07-20T12:37:07;22.20;94.50
12254;DHT22;6189;52.526;13.390;2023-07-20T12:39:53;22.10;94.20
12254;DHT22;6189;52.526;13.390;2023-07-20T12:42:42;22.00;93.70
12254;DHT22;6189;52.526;13.390;2023-07-20T12:45:29;22.10;94.50
12254;DHT22;6189;52.526;13.390;2023-07-20T12:48:15;22.40;93.40
12254;DHT22;6189;52.526;13.390;2023-07-20T12:51:00;22.60;92.90
12254;DHT22;6189;52.526;13.390;2023-07-20T12:53:46;22.70;92.50
12254;DHT22;6189;52.526;13.390;2023-07-20T12:56:32;22.80;92.60
12254;DHT22;6189;52.526;13.390;2023-07-20T12:59:19;22.90;91.70
12254;DHT22;6189;52.526;13.390;2023-07-20T13:02:05;23.10;92.10
12254;DHT22;6189;52.526;13.390;2023-07-20T13:04:50;23.40;90.50
12254;DHT22;6189;52.526;13.390;2023-07-20T13:07:36;23.60;90.50
12254;DHT22;6189;52.526;13.390;2023-07-20T13:10:23;23.70;88.10
12254;DHT22;6189;52.526;13.390;2023-07-20T13:13:08;24.00;89.00
12254;DHT22;6189;52.526;13.390;2023-07-20T13:15:55;24.30;86.70
12254;DHT22;6189;52.526;13.390;2023-07-20T13:18:40;24.70;83.60
12254;DHT22;6189;52.526;13.390;2023-07-20T13:21:28;24.80;77.00
12254;DHT22;6189;52.526;13.390;2023-07-20T13:24:13;25.00;81.40
12254;DHT22;6189;52.526;13.390;2023-07-20T13:26:59;25.10;73.70
12254;DHT22;6189;52.526;13.390;2023-07-20T13:29:45;25.20;74.10
12254;DHT22;6189;52.526;13.390;2023-07-20T13:32:32;25.40;71.90
12254;DHT22;6189;52.526;13.390;2023-07-20T13:35:18;25.50;73.00
12254;DHT22;6189;52.526;13.390;2023-07-20T13:38:03;25.50;68.20
12254;DHT22;6189;52.526;13.390;2023-07-20T13:40:50;25.50;67.80
12254;DHT22;6189;52.526;13.390;2023-07-20T13:43:36;25.40;67.10
12254;DHT22;6189;52.526;13.390;2023-07-20T13:46:21;25.40;66.60
12254;DHT22;6189;52.526;13.390;2023-07-20T13:49:08;25.40;65.10
12254;DHT22;6189;52.526;13.390;2023-07-20T13:51:53;25.30;66.30
12254;DHT22;6189;52.526;13.390;2023-07-20T13:54:39;25.30;66.00
12254;DHT22;6189;52.526;13.390;2023-07-20T13:57:25;25.20;65.00
12254;DHT22;6189;52.526;13.390;2023-07-20T14:00:10;25.20;65.10
12254;DHT22;6189;52.526;13.390;2023-07-20T14:02:57;25.10;67.80
12254;DHT22;6189;52.526;13.390;2023-07-20T14:05:44;25.20;67.90
12254;DHT22;6189;52.526;13.390;2023-07-20T14:08:30;25.30;67.60
12254;DHT22;6189;52.526;13.390;2023-07-20T14:11:16;25.40;66.80
12254;DHT22;6189;52.526;13.390;2023-07-20T14:14:01;25.50;66.50
12254;DHT22;6189;52.526;13.390;2023-07-20T14:16:47;25.50;66.90
12254;DHT22;6189;52.526;13.390;2023-07-20T14:19:34;25.40;66.30
12254;DHT22;6189;52.526;13.390;2023-07-20T14:22:23;25.40;64.70
12254;DHT22;6189;52.526;13.390;2023-07-20T14:25:09;25.10;62.70
12254;DHT22;6189;52.526;13.390;2023-07-20T14:27:54;25.10;63.50
12254;DHT22;6189;52.526;13.390;2023-07-20T14:30:39;25.20;62.20
12254;DHT22;6189;52.526;13.390;2023-07-20T14:33:25;25.20;62.20
12254;DHT22;6189;52.526;13.390;2023-07-20T14:36:10;25.20;65.60
12254;DHT22;6189;52.526;13.390;2023-07-20T14:38:57;25.20;62.40
12254;DHT22;6189;52.526;13.390;2023-07-20T14:41:43;25.30;62.30
12254;DHT22;6189;52.526;13.390;2023-07-20T14:44:28;25.20;62.00
12254;DHT22;6189;52.526;13.390;2023-07-20T14:47:13;25.00;61.70
12254;DHT22;6189;52.526;13.390;2023-07-20T14:49:59;25.00;61.30
12254;DHT22;6189;52.526;13.390;2023-07-20T14:52:46;25.00;61.50
12254;DHT22;6189;52.526;13.390;2023-07-20T14:55:33;25.20;60.80
12254;DHT22;6189;52.526;13.390;2023-07-20T14:58:19;25.20;61.00
12254;DHT22;6189;52.526;13.390;2023-07-20T15:01:05;25.20;60.40
12254;DHT22;6189;52.526;13.390;2023-07-20T15:03:50;25.20;60.30
12254;DHT22;6189;52.526;13.390;2023-07-20T15:06:37;25.20;60.70
12254;DHT22;6189;52.526;13.390;2023-07-20T15:09:24;25.10;60.20
12254;DHT22;6189;52.526;13.390;2023-07-20T15:12:11;25.00;60.80
12254;DHT22;6189;52.526;13.390;2023-07-20T15:15:02;25.00;60.80
12254;DHT22;6189;52.526;13.390;2023-07-20T15:17:48;25.00;61.50
12254;DHT22;6189;52.526;13.390;2023-07-20T15:20:35;24.90;60.40
12254;DHT22;6189;52.526;13.390;2023-07-20T15:23:20;24.90;60.60
12254;DHT22;6189;52.526;13.390;2023-07-20T15:26:05;24.70;60.70
12254;DHT22;6189;52.526;13.390;2023-07-20T15:28:52;24.50;61.60
12254;DHT22;6189;52.526;13.390;2023-07-20T15:31:37;24.40;61.30
12254;DHT22;6189;52.526;13.390;2023-07-20T15:34:23;24.50;62.70
12254;DHT22;6189;52.526;13.390;2023-07-20T15:37:09;24.50;61.40
12254;DHT22;6189;52.526;13.390;2023-07-20T15:39:55;24.40;61.40
12254;DHT22;6189;52.526;13.390;2023-07-20T15:42:41;24.40;63.50
12254;DHT22;6189;52.526;13.390;2023-07-20T15:45:28;24.50;61.00
12254;DHT22;6189;52.526;13.390;2023-07-20T15:48:14;24.50;60.50
12254;DHT22;6189;52.526;13.390;2023-07-20T15:51:00;24.40;60.00
12254;DHT22;6189;52.526;13.390;2023-07-20T15:53:46;24.40;60.90
12254;DHT22;6189;52.526;13.390;2023-07-20T15:56:31;24.30;61.40
12254;DHT22;6189;52.526;13.390;2023-07-20T15:59:17;24.30;61.40
12254;DHT22;6189;52.526;13.390;2023-07-20T16:02:06;24.30;63.10
12254;DHT22;6189;52.526;13.390;2023-07-20T16:04:52;24.30;62.40
12254;DHT22;6189;52.526;13.390;2023-07-20T16:07:37;24.30;62.40
12254;DHT22;6189;52.526;13.390;2023-07-20T16:10:23;24.00;63.00
12254;DHT22;6189;52.526;13.390;2023-07-20T16:13:09;23.90;64.50
12254;DHT22;6189;52.526;13.390;2023-07-20T16:15:55;23.80;65.20
12254;DHT22;6189;52.526;13.390;2023-07-20T16:18:44;23.80;65.30
12254;DHT22;6189;52.526;13.390;2023-07-20T16:21:31;23.80;65.70
12254;DHT22;6189;52.526;13.390;2023-07-20T16:24:17;23.80;66.20
12254;DHT22;6189;52.526;13.390;2023-07-20T16:27:02;23.80;65.90
12254;DHT22;6189;52.526;13.390;2023-07-20T16:29:48;23.80;65.40
12254;DHT22;6189;52.526;13.390;2023-07-20T16:32:33;23.80;67.00
12254;DHT22;6189;52.526;13.390;2023-07-20T16:35:20;23.90;66.40
12254;DHT22;6189;52.526;13.390;2023-07-20T16:38:06;23.80;64.80
12254;DHT22;6189;52.526;13.390;2023-07-20T16:40:54;23.60;65.20
12254;DHT22;6189;52.526;13.390;2023-07-20T16:43:40;23.60;65.60
12254;DHT22;6189;52.526;13.390;2023-07-20T16:46:25;23.60;65.00
12254;DHT22;6189;52.526;13.390;2023-07-20T16:49:11;23.60;65.00
12254;DHT22;6189;52.526;13.390;2023-07-20T16:51:59;23.50;65.60
12254;DHT22;6189;52.526;13.390;2023-07-20T16:54:45;23.60;67.00
12254;DHT22;6189;52.526;13.390;2023-07-20T16:57:31;23.60;68.20
12254;DHT22;6189;52.526;13.390;2023-07-20T17:00:17;23.60;68.50
12254;DHT22;6189;52.526;13.390;2023-07-20T17:03:02;23.60;68.90
12254;DHT22;6189;52.526;13.390;2023-07-20T17:05:48;23.60;68.20
12254;DHT22;6189;52.526;13.390;2023-07-20T17:08:35;23.60;68.60
12254;DHT22;6189;52.526;13.390;2023-07-20T17:11:21;23.60;68.80
12254;DHT22;6189;52.526;13.390;2023-07-20T17:14:07;23.60;68.80
12254;DHT22;6189;52.526;13.390;2023-07-20T17:16:53;23.50;68.60
12254;DHT22;6189;52.526;13.390;2023-07-20T17:19:38;23.30;68.90
12254;DHT22;6189;52.526;13.390;2023-07-20T17:22:23;23.10;68.80
12254;DHT22;6189;52.526;13.390;2023-07-20T17:25:10;23.00;69.60
12254;DHT22;6189;52.526;13.390;2023-07-20T17:27:57;23.00;69.00
12254;DHT22;6189;52.526;13.390;2023-07-20T17:30:45;22.80;69.60
12254;DHT22;6189;52.526;13.390;2023-07-20T17:33:32;22.80;70.00
12254;DHT22;6189;52.526;13.390;2023-07-20T17:36:18;22.70;70.70
12254;DHT22;6189;52.526;13.390;2023-07-20T17:39:05;22.60;71.60
12254;DHT22;6189;52.526;13.390;2023-07-20T17:41:52;22.60;71.30